Time;durP1;ratioP1;P1;durP2;ratioP2;P2;SDS_P1;SDS_P2;PMS_P1;PMS_P2;Temp;Humidity;BMP_temperature;BMP_pressure;BME280_temperature;BME280_humidity;BME280_pressure;Samples;Min_cycle;Max_cycle;Signal;HPM_P1;HPM_P2
2021/04/23 00:01:42;;;;;;;38.92;32.15;;;16.70;48.60;;;;;;5052750;28;20690;-65
2021/04/23 00:04:08;;;;;;;39.90;33.15;;;16.60;48.70;;;;;;5042719;28;20119;-65
2021/04/23 00:06:40;;;;;;;36.08;32.13;;;16.60;49.20;;;;;;5046318;28;20120;-65
2021/04/23 00:09:16;;;;;;;40.15;32.28;;;16.50;49.80;;;;;;5047435;28;20482;-65
2021/04/23 00:11:55;;;;;;;36.60;32.70;;;16.50;49.60;;;;;;5049534;28;20065;-65
2021/04/23 00:14:29;;;;;;;36.17;31.13;;;16.50;49.80;;;;;;5044426;28;20079;-64
2021/04/23 00:16:56;;;;;;;36.30;32.38;;;16.50;49.80;;;;;;5057074;28;20422;-65
2021/04/23 00:19:24;;;;;;;34.97;30.92;;;16.40;49.40;;;;;;5065478;28;21582;-65
2021/04/23 00:21:51;;;;;;;38.75;31.60;;;16.40;49.20;;;;;;5054828;28;20041;-65
2021/04/23 00:24:17;;;;;;;36.38;31.02;;;16.50;49.10;;;;;;5051687;28;20036;-65
2021/04/23 00:26:44;;;;;;;36.40;32.05;;;16.40;49.40;;;;;;5055618;28;20033;-65
2021/04/23 00:29:10;;;;;;;35.95;32.15;;;16.30;49.50;;;;;;5045592;28;20041;-65
2021/04/23 00:31:37;;;;;;;38.85;32.00;;;16.30;49.60;;;;;;5045654;28;20029;-65
2021/04/23 00:34:03;;;;;;;34.60;30.98;;;16.30;49.70;;;;;;5056262;28;20041;-65
2021/04/23 00:36:29;;;;;;;33.70;30.02;;;16.40;49.40;;;;;;5044941;28;20040;-65
2021/04/23 00:38:54;;;;;;;35.15;31.27;;;16.30;48.80;;;;;;5038483;28;20590;-65
2021/04/23 00:41:30;;;;;;;35.65;31.77;;;16.40;49.20;;;;;;5053737;28;20406;-65
2021/04/23 00:43:57;;;;;;;37.72;31.85;;;16.40;49.80;;;;;;5051064;28;20118;-65
2021/04/23 00:46:31;;;;;;;35.08;30.20;;;16.30;49.50;;;;;;5049926;28;20029;-65
2021/04/23 00:48:59;;;;;;;38.90;30.83;;;16.30;49.80;;;;;;5065929;28;20041;-65
2021/04/23 00:51:31;;;;;;;37.47;30.75;;;16.30;49.60;;;;;;5061168;28;20224;-64
2021/04/23 00:53:58;;;;;;;37.00;30.50;;;16.20;49.90;;;;;;5064635;28;20466;-65
2021/04/23 00:56:31;;;;;;;36.38;31.45;;;16.20;49.80;;;;;;5060510;28;20045;-65
2021/04/23 00:58:58;;;;;;;35.05;31.35;;;16.20;49.80;;;;;;5065487;28;20525;-64
2021/04/23 01:01:25;;;;;;;38.47;31.27;;;16.20;49.70;;;;;;5060805;28;20052;-65
2021/04/23 01:03:52;;;;;;;37.03;30.20;;;16.10;50.10;;;;;;5034657;28;20419;-65
2021/04/23 01:06:21;;;;;;;36.22;32.35;;;16.00;50.70;;;;;;5054686;28;20118;-64
2021/04/23 01:08:47;;;;;;;33.22;29.35;;;16.10;50.50;;;;;;5060038;28;20041;-65
2021/04/23 01:11:15;;;;;;;33.90;30.30;;;16.00;50.40;;;;;;5051479;28;20091;-65
2021/04/23 01:13:41;;;;;;;33.90;30.30;;;16.00;50.70;;;;;;5040364;28;20040;-65
2021/04/23 01:16:11;;;;;;;36.58;31.35;;;16.00;50.90;;;;;;5041484;28;20040;-64
2021/04/23 01:18:38;;;;;;;36.58;31.38;;;16.00;50.70;;;;;;5046379;28;20414;-64
2021/04/23 01:21:17;;;;;;;34.08;30.50;;;16.00;50.80;;;;;;5044807;28;20041;-64
2021/04/23 01:23:45;;;;;;;35.80;30.67;;;16.00;50.90;;;;;;5046825;28;20491;-64
2021/04/23 01:26:12;;;;;;;37.17;31.83;;;15.90;50.70;;;;;;5045388;28;20029;-66
2021/04/23 01:28:39;;;;;;;34.75;31.05;;;15.90;51.30;;;;;;5049850;28;20095;-65
2021/04/23 01:31:08;;;;;;;39.28;32.13;;;15.80;51.10;;;;;;5035371;28;20056;-65
2021/04/23 01:33:36;;;;;;;35.13;30.80;;;15.80;51.60;;;;;;5059721;28;20045;-65
2021/04/23 01:36:04;;;;;;;34.42;30.80;;;15.80;51.10;;;;;;5054356;28;20114;-64
2021/04/23 01:38:29;;;;;;;33.88;30.38;;;15.90;51.00;;;;;;5026882;28;20434;-64
2021/04/23 01:40:55;;;;;;;34.92;31.13;;;15.90;51.30;;;;;;5038143;28;20116;-65
2021/04/23 01:43:22;;;;;;;35.40;31.35;;;15.80;51.50;;;;;;5057131;28;20119;-65
2021/04/23 01:45:48;;;;;;;35.88;32.13;;;15.70;51.70;;;;;;5039175;28;20104;-64
2021/04/23 01:48:18;;;;;;;37.17;30.90;;;15.80;51.50;;;;;;5033917;28;20044;-64
2021/04/23 01:50:44;;;;;;;37.15;32.25;;;15.80;51.40;;;;;;5053335;28;20124;-64
2021/04/23 01:53:10;;;;;;;34.35;30.70;;;15.70;51.70;;;;;;5052398;28;20608;-65
2021/04/23 01:55:37;;;;;;;36.85;32.35;;;15.70;51.60;;;;;;5045077;28;20049;-65
2021/04/23 01:58:03;;;;;;;38.90;32.22;;;15.70;51.80;;;;;;5067399;28;20467;-65
2021/04/23 02:00:35;;;;;;;36.15;29.77;;;15.70;51.40;;;;;;5064047;28;20070;-65
2021/04/23 02:03:04;;;;;;;36.83;31.35;;;15.70;51.80;;;;;;5060140;28;20044;-65
2021/04/23 02:05:31;;;;;;;40.50;32.83;;;15.70;52.10;;;;;;5055142;28;20079;-65
2021/04/23 02:07:57;;;;;;;35.45;31.45;;;15.70;51.70;;;;;;5034165;28;20103;-64
2021/04/23 02:10:26;;;;;;;35.58;30.52;;;15.70;51.80;;;;;;5032542;28;20091;-66
2021/04/23 02:12:52;;;;;;;35.55;31.30;;;15.70;52.00;;;;;;5058156;28;20037;-65
2021/04/23 02:15:19;;;;;;;37.20;32.33;;;15.70;51.50;;;;;;5049209;28;20120;-65
2021/04/23 02:17:45;;;;;;;38.78;32.88;;;15.70;51.60;;;;;;5059108;28;20125;-65
2021/04/23 02:20:19;;;;;;;37.55;31.85;;;15.70;51.70;;;;;;5047921;28;20060;-65
2021/04/23 02:22:46;;;;;;;36.70;31.50;;;15.60;52.00;;;;;;5047484;28;20041;-65
2021/04/23 02:25:14;;;;;;;37.30;33.28;;;15.60;52.10;;;;;;5048864;28;20127;-65
2021/04/23 02:27:40;;;;;;;36.50;32.50;;;15.60;52.50;;;;;;5059079;28;20093;-65
2021/04/23 02:30:09;;;;;;;37.22;33.30;;;15.60;52.40;;;;;;5025612;28;20061;-65
2021/04/23 02:32:35;;;;;;;37.40;33.33;;;15.60;52.40;;;;;;5053630;28;20055;-65
2021/04/23 02:35:02;;;;;;;36.38;32.47;;;15.60;52.70;;;;;;5058533;28;20490;-65
2021/04/23 02:37:28;;;;;;;38.00;33.33;;;15.50;52.60;;;;;;5055959;28;20453;-65
2021/04/23 02:39:54;;;;;;;37.90;33.78;;;15.60;52.70;;;;;;5057460;28;20048;-65
2021/04/23 02:42:20;;;;;;;40.63;32.88;;;15.50;52.50;;;;;;5045002;28;20037;-65
2021/04/23 02:44:45;;;;;;;39.80;32.33;;;15.60;52.60;;;;;;5050229;28;20036;-64
2021/04/23 02:47:11;;;;;;;39.13;32.35;;;15.50;52.50;;;;;;5050957;28;20037;-64
2021/04/23 02:49:37;;;;;;;36.15;32.03;;;15.50;53.00;;;;;;5067739;28;20479;-64
2021/04/23 02:52:03;;;;;;;36.92;32.90;;;15.50;53.20;;;;;;5063107;28;20047;-65
2021/04/23 02:54:29;;;;;;;40.65;33.05;;;15.40;53.30;;;;;;5055832;28;20440;-64
2021/04/23 02:56:55;;;;;;;39.85;34.22;;;15.40;53.40;;;;;;5053894;28;20132;-65
2021/04/23 02:59:21;;;;;;;40.05;34.78;;;15.40;53.80;;;;;;5048355;28;20041;-65
2021/04/23 03:01:49;;;;;;;37.28;33.10;;;15.30;53.80;;;;;;5050625;28;20049;-64
2021/04/23 03:04:15;;;;;;;40.83;36.30;;;15.40;54.00;;;;;;5066150;28;20040;-64
2021/04/23 03:06:42;;;;;;;38.20;34.05;;;15.40;54.00;;;;;;5062925;28;20386;-64
2021/04/23 03:09:08;;;;;;;39.35;34.80;;;15.30;54.10;;;;;;5047209;28;20613;-64
2021/04/23 03:11:36;;;;;;;37.28;33.33;;;15.30;54.20;;;;;;5062109;28;20497;-64
2021/04/23 03:14:02;;;;;;;40.00;33.22;;;15.40;54.30;;;;;;5065137;28;20032;-63
2021/04/23 03:16:29;;;;;;;38.85;34.22;;;15.40;54.50;;;;;;5052627;28;20059;-64
2021/04/23 03:18:55;;;;;;;43.08;34.25;;;15.30;54.50;;;;;;5065047;28;20486;-64
2021/04/23 03:21:24;;;;;;;39.00;34.30;;;15.40;54.70;;;;;;5062349;28;20060;-65
2021/04/23 03:23:50;;;;;;;40.83;33.60;;;15.30;54.70;;;;;;5046093;28;20142;-64
2021/04/23 03:26:19;;;;;;;38.88;33.83;;;15.30;55.10;;;;;;5064156;28;20055;-64
2021/04/23 03:28:45;;;;;;;37.50;33.40;;;15.30;55.30;;;;;;5046044;28;20442;-64
2021/04/23 03:31:13;;;;;;;38.50;33.35;;;15.30;55.20;;;;;;5059276;28;20102;-64
2021/04/23 03:33:39;;;;;;;41.28;32.97;;;15.20;55.50;;;;;;5059885;28;20136;-64
2021/04/23 03:36:06;;;;;;;37.17;32.80;;;15.20;55.50;;;;;;5048304;28;20033;-64
2021/04/23 03:38:34;;;;;;;36.28;32.17;;;15.20;56.00;;;;;;5050897;28;20404;-64
2021/04/23 03:41:05;;;;;;;38.75;34.05;;;15.10;55.90;;;;;;5044037;28;20052;-64
2021/04/23 03:43:30;;;;;;;41.53;34.80;;;15.10;56.10;;;;;;5050343;28;20044;-64
2021/04/23 03:45:56;;;;;;;38.10;33.08;;;15.10;55.90;;;;;;5049663;28;20041;-65
2021/04/23 03:48:23;;;;;;;39.13;34.78;;;15.10;56.10;;;;;;5044115;28;20136;-65
2021/04/23 03:50:48;;;;;;;39.78;34.45;;;15.10;56.20;;;;;;5063977;28;20044;-64
2021/04/23 03:53:17;;;;;;;42.40;35.45;;;15.10;56.50;;;;;;5046234;28;20037;-64
2021/04/23 03:55:50;;;;;;;40.75;34.88;;;15.00;56.80;;;;;;5053767;28;20053;-65
2021/04/23 03:58:18;;;;;;;39.55;34.67;;;15.00;57.20;;;;;;5053858;28;20044;-65
2021/04/23 04:00:50;;;;;;;40.22;34.08;;;15.00;56.80;;;;;;5055553;28;20502;-64
2021/04/23 04:03:17;;;;;;;42.92;33.88;;;15.00;57.10;;;;;;5061499;28;20385;-64
2021/04/23 04:05:44;;;;;;;40.15;33.55;;;15.00;56.80;;;;;;5034451;28;20046;-63
2021/04/23 04:08:10;;;;;;;39.97;33.47;;;15.00;57.00;;;;;;5045787;28;20040;-64
2021/04/23 04:10:37;;;;;;;41.88;34.97;;;15.00;57.10;;;;;;5042505;28;20090;-64
2021/04/23 04:13:05;;;;;;;39.97;33.80;;;14.90;57.40;;;;;;5052437;28;20041;-63
2021/04/23 04:15:31;;;;;;;42.65;34.55;;;14.90;57.80;;;;;;5043712;28;20076;-63
2021/04/23 04:17:57;;;;;;;38.92;33.10;;;14.90;57.60;;;;;;5031839;28;20037;-64
2021/04/23 04:20:25;;;;;;;38.55;32.88;;;14.90;57.60;;;;;;5061230;28;20040;-64
2021/04/23 04:22:51;;;;;;;43.33;33.08;;;15.00;57.60;;;;;;5046684;28;20040;-64
2021/04/23 04:25:27;;;;;;;40.90;32.53;;;15.00;57.50;;;;;;5054364;28;20048;-64
2021/04/23 04:27:53;;;;;;;37.28;32.13;;;15.00;57.60;;;;;;5045594;28;20487;-64
2021/04/23 04:30:19;;;;;;;40.83;33.10;;;14.90;57.50;;;;;;5055872;28;20502;-64
2021/04/23 04:32:45;;;;;;;45.28;33.53;;;14.90;57.80;;;;;;5030276;28;20036;-65
2021/04/23 04:35:12;;;;;;;38.95;32.15;;;14.90;57.80;;;;;;5027265;28;20037;-64
2021/04/23 04:37:38;;;;;;;44.67;33.58;;;14.90;57.90;;;;;;5048939;28;20044;-64
2021/04/23 04:40:05;;;;;;;36.55;32.53;;;14.90;57.90;;;;;;5040836;28;20482;-64
2021/04/23 04:42:31;;;;;;;39.55;32.80;;;14.80;57.80;;;;;;5022338;28;20033;-63
2021/04/23 04:45:01;;;;;;;40.03;33.50;;;14.90;57.80;;;;;;5049660;28;20383;-63
2021/04/23 04:47:28;;;;;;;37.13;31.08;;;14.80;57.90;;;;;;5051126;28;20041;-63
2021/04/23 04:49:54;;;;;;;41.55;32.47;;;14.90;57.80;;;;;;5061306;28;20059;-64
2021/04/23 04:52:19;;;;;;;42.17;32.67;;;14.80;57.90;;;;;;5054092;28;20410;-63
2021/04/23 04:54:45;;;;;;;39.88;33.03;;;14.80;57.80;;;;;;5051773;28;20070;-64
2021/04/23 04:57:11;;;;;;;41.40;32.38;;;14.80;57.80;;;;;;5047042;28;20036;-63
2021/04/23 04:59:36;;;;;;;37.13;31.17;;;14.90;57.90;;;;;;5046832;28;20044;-63
2021/04/23 05:02:02;;;;;;;35.38;31.23;;;14.70;58.00;;;;;;5045927;28;20037;-63
2021/04/23 05:04:28;;;;;;;35.60;31.48;;;14.70;58.10;;;;;;5060664;28;20068;-63
2021/04/23 05:06:53;;;;;;;40.20;31.02;;;14.70;58.10;;;;;;5051657;28;20405;-65
2021/04/23 05:09:19;;;;;;;36.88;30.88;;;14.70;58.30;;;;;;5053957;28;20048;-63
2021/04/23 05:11:45;;;;;;;40.85;30.02;;;14.80;58.00;;;;;;5061969;28;20194;-64
2021/04/23 05:14:10;;;;;;;34.55;30.17;;;14.70;58.40;;;;;;5058051;28;20057;-64
2021/04/23 05:16:36;;;;;;;35.78;29.98;;;14.70;58.50;;;;;;5051037;28;20064;-64
2021/04/23 05:19:02;;;;;;;34.92;30.75;;;14.80;58.40;;;;;;5054735;28;20123;-63
2021/04/23 05:21:28;;;;;;;34.55;30.48;;;14.70;58.20;;;;;;5052858;28;20052;-64
2021/04/23 05:23:53;;;;;;;35.88;30.00;;;14.80;58.30;;;;;;5051614;28;20052;-64
2021/04/23 05:26:19;;;;;;;39.85;31.80;;;14.80;58.40;;;;;;5061258;28;20452;-63
2021/04/23 05:28:45;;;;;;;32.42;27.92;;;14.80;58.40;;;;;;5038873;28;20045;-63
2021/04/23 05:31:11;;;;;;;37.30;30.52;;;14.80;58.40;;;;;;5043498;28;20068;-63
2021/04/23 05:33:36;;;;;;;39.92;29.15;;;14.80;58.40;;;;;;5064393;28;20044;-63
2021/04/23 05:36:02;;;;;;;36.03;28.75;;;14.80;58.50;;;;;;5055747;28;20056;-63
2021/04/23 05:38:28;;;;;;;38.33;29.17;;;14.90;58.40;;;;;;5036076;28;20066;-63
2021/04/23 05:40:53;;;;;;;32.33;28.80;;;14.90;58.40;;;;;;5055282;28;20060;-65
2021/04/23 05:43:19;;;;;;;32.50;28.48;;;14.80;58.80;;;;;;5066052;28;20043;-64
2021/04/23 05:45:47;;;;;;;34.38;28.52;;;14.80;58.70;;;;;;5060540;28;20044;-64
2021/04/23 05:48:15;;;;;;;37.95;29.63;;;14.80;58.60;;;;;;5048485;28;20037;-64
2021/04/23 05:50:41;;;;;;;34.63;28.05;;;14.90;58.50;;;;;;5048832;28;20482;-64
2021/04/23 05:53:07;;;;;;;35.95;27.85;;;14.90;58.30;;;;;;5046710;28;20372;-63
2021/04/23 05:55:34;;;;;;;35.70;27.50;;;14.90;58.20;;;;;;5038479;28;20042;-64
2021/04/23 05:58:01;;;;;;;32.42;26.15;;;15.00;58.30;;;;;;5047917;28;20041;-64
2021/04/23 06:00:30;;;;;;;31.98;26.35;;;14.90;58.20;;;;;;5056197;28;20044;-63
2021/04/23 06:02:57;;;;;;;33.22;26.70;;;14.90;58.10;;;;;;5057295;28;20037;-63
2021/04/23 06:05:27;;;;;;;32.03;25.63;;;14.90;58.20;;;;;;5044243;28;20044;-64
2021/04/23 06:07:54;;;;;;;29.35;24.95;;;14.90;58.30;;;;;;5058591;28;20040;-63
2021/04/23 06:10:20;;;;;;;33.55;26.00;;;14.90;58.30;;;;;;5053410;28;20052;-63
2021/04/23 06:12:46;;;;;;;28.13;24.30;;;14.80;58.20;;;;;;5045503;28;20052;-64
2021/04/23 06:15:13;;;;;;;32.72;26.15;;;15.00;58.20;;;;;;5049127;28;20040;-63
2021/04/23 06:17:39;;;;;;;34.92;26.48;;;15.00;58.00;;;;;;5052412;28;20494;-64
2021/04/23 06:20:09;;;;;;;33.00;25.25;;;15.00;58.10;;;;;;5048388;28;20060;-64
2021/04/23 06:22:35;;;;;;;29.10;25.85;;;15.10;58.00;;;;;;5043249;28;20053;-63
2021/04/23 06:25:01;;;;;;;27.77;23.70;;;15.10;57.90;;;;;;5044785;28;20048;-64
2021/04/23 06:27:26;;;;;;;27.60;24.25;;;15.00;58.00;;;;;;5040292;28;20037;-64
2021/04/23 06:29:52;;;;;;;30.02;25.33;;;15.20;57.90;;;;;;5050926;28;20040;-63
2021/04/23 06:32:19;;;;;;;26.45;22.67;;;15.20;57.60;;;;;;5053531;28;20028;-64
2021/04/23 06:34:44;;;;;;;30.38;23.13;;;15.30;57.60;;;;;;5046507;28;20040;-64
2021/04/23 06:37:10;;;;;;;27.55;23.40;;;15.30;57.70;;;;;;5047555;28;20102;-64
2021/04/23 06:39:36;;;;;;;32.53;21.90;;;15.30;57.50;;;;;;5044601;28;20053;-63
2021/04/23 06:42:01;;;;;;;34.78;22.85;;;15.40;57.40;;;;;;5066303;28;20044;-64
2021/04/23 06:44:27;;;;;;;35.00;23.20;;;15.40;57.40;;;;;;5063788;28;20028;-64
2021/04/23 06:46:53;;;;;;;30.95;22.52;;;15.50;57.30;;;;;;5061638;28;20041;-63
2021/04/23 06:49:19;;;;;;;33.35;22.55;;;15.50;57.30;;;;;;5046071;28;20037;-64
2021/04/23 06:51:45;;;;;;;30.58;22.10;;;15.50;57.00;;;;;;5051969;28;20501;-63
2021/04/23 06:54:11;;;;;;;28.13;21.30;;;15.60;56.80;;;;;;5057312;28;20498;-63
2021/04/23 06:56:36;;;;;;;29.38;22.05;;;15.60;57.10;;;;;;5046687;28;20075;-64
2021/04/23 06:59:02;;;;;;;27.25;20.48;;;15.50;56.70;;;;;;5049042;28;20067;-64
2021/04/23 07:01:28;;;;;;;23.02;20.08;;;15.60;56.80;;;;;;5056240;28;20040;-64
2021/04/23 07:03:54;;;;;;;22.60;19.92;;;15.60;56.40;;;;;;5048654;28;20039;-65
2021/04/23 07:06:20;;;;;;;26.98;22.50;;;15.70;56.50;;;;;;5049146;28;20040;-64
2021/04/23 07:08:46;;;;;;;27.63;21.63;;;15.70;56.40;;;;;;5050087;28;20044;-64
2021/04/23 07:11:11;;;;;;;25.95;20.67;;;15.70;56.30;;;;;;5064283;28;20044;-64
2021/04/23 07:13:37;;;;;;;25.95;21.63;;;15.70;56.60;;;;;;5068201;28;20052;-63
2021/04/23 07:16:03;;;;;;;31.42;21.75;;;15.70;56.40;;;;;;5053068;28;20490;-63
2021/04/23 07:18:29;;;;;;;24.63;22.08;;;15.70;56.20;;;;;;5046808;28;20390;-63
2021/04/23 07:20:55;;;;;;;23.67;20.33;;;15.70;55.90;;;;;;5046685;28;20041;-64
2021/04/23 07:23:21;;;;;;;25.33;20.52;;;15.80;56.30;;;;;;5053649;28;20498;-63
2021/04/23 07:25:47;;;;;;;23.35;20.77;;;15.80;56.10;;;;;;5058701;28;20071;-63
2021/04/23 07:28:13;;;;;;;26.73;20.38;;;15.70;55.90;;;;;;5048412;28;20124;-63
2021/04/23 07:30:40;;;;;;;26.95;21.30;;;15.80;56.00;;;;;;5050637;28;20476;-62
2021/04/23 07:33:12;;;;;;;26.88;20.98;;;15.90;55.90;;;;;;5048145;28;21377;-64
2021/04/23 07:35:42;;;;;;;26.45;21.08;;;15.90;55.90;;;;;;5055858;28;20052;-63
2021/04/23 07:38:08;;;;;;;25.67;21.42;;;16.00;55.90;;;;;;5038937;28;20453;-62
2021/04/23 07:40:34;;;;;;;30.05;21.15;;;16.00;55.80;;;;;;5017542;28;20037;-63
2021/04/23 07:43:00;;;;;;;26.95;22.38;;;15.90;55.40;;;;;;5061814;28;20032;-63
2021/04/23 07:45:27;;;;;;;26.50;22.33;;;15.90;55.40;;;;;;5054652;28;20046;-63
2021/04/23 07:47:54;;;;;;;26.48;22.33;;;16.00;55.20;;;;;;5036136;28;20041;-63
2021/04/23 07:50:24;;;;;;;29.83;22.30;;;16.00;55.30;;;;;;5044722;28;20398;-63
2021/04/23 07:52:51;;;;;;;27.05;22.60;;;16.10;55.10;;;;;;5047926;28;20036;-63
2021/04/23 07:55:18;;;;;;;27.67;21.95;;;16.20;55.40;;;;;;5045397;28;20063;-63
2021/04/23 07:57:43;;;;;;;26.27;21.83;;;16.30;55.40;;;;;;5052366;28;20032;-62
2021/04/23 08:00:11;;;;;;;29.25;22.08;;;16.30;55.00;;;;;;5063185;28;20045;-63
2021/04/23 08:02:37;;;;;;;26.70;22.15;;;16.30;54.90;;;;;;5046257;28;20061;-63
2021/04/23 08:05:04;;;;;;;28.83;22.33;;;16.40;54.70;;;;;;5055870;28;20075;-63
2021/04/23 08:07:30;;;;;;;26.83;22.70;;;16.50;54.80;;;;;;5050428;28;20471;-63
2021/04/23 08:09:55;;;;;;;27.98;22.42;;;16.50;54.90;;;;;;5042373;28;20029;-63
2021/04/23 08:12:21;;;;;;;25.30;21.60;;;16.50;54.60;;;;;;5049162;28;20033;-63
2021/04/23 08:14:47;;;;;;;26.13;21.55;;;16.60;54.20;;;;;;5051045;28;20545;-62
2021/04/23 08:17:12;;;;;;;25.77;23.00;;;16.60;54.20;;;;;;5047440;28;20395;-63
2021/04/23 08:19:38;;;;;;;30.23;22.42;;;16.70;53.90;;;;;;5054105;28;20494;-63
2021/04/23 08:22:04;;;;;;;24.63;21.90;;;16.70;53.80;;;;;;5051839;28;20506;-64
2021/04/23 08:24:31;;;;;;;24.45;20.92;;;16.80;53.90;;;;;;5045800;28;20029;-64
2021/04/23 08:26:57;;;;;;;26.50;22.52;;;16.80;53.60;;;;;;5050973;28;20033;-63
2021/04/23 08:29:22;;;;;;;27.50;23.77;;;16.90;53.40;;;;;;5040400;28;20506;-64
2021/04/23 08:31:48;;;;;;;28.90;22.67;;;17.00;53.40;;;;;;5057827;28;20044;-64
2021/04/23 08:34:14;;;;;;;25.40;22.52;;;17.00;53.50;;;;;;5051755;28;20045;-64
2021/04/23 08:36:39;;;;;;;26.13;22.65;;;17.00;53.30;;;;;;5059466;28;20035;-63
2021/04/23 08:39:10;;;;;;;29.85;23.02;;;17.10;53.20;;;;;;5028683;28;20510;-64
2021/04/23 08:41:38;;;;;;;27.33;22.65;;;17.20;53.30;;;;;;5059763;28;20119;-64
2021/04/23 08:44:05;;;;;;;27.10;22.05;;;17.20;52.90;;;;;;5048431;28;20040;-62
2021/04/23 08:46:32;;;;;;;30.38;23.35;;;17.30;52.70;;;;;;5044837;28;20447;-63
2021/04/23 08:48:59;;;;;;;27.98;22.60;;;17.20;52.30;;;;;;5046116;28;20057;-63
2021/04/23 08:51:27;;;;;;;25.35;21.90;;;17.30;52.40;;;;;;5059072;28;20045;-63
2021/04/23 08:53:53;;;;;;;24.63;20.35;;;17.30;52.10;;;;;;5055290;28;20045;-62
2021/04/23 08:56:19;;;;;;;25.15;21.40;;;17.40;51.50;;;;;;5058678;28;20543;-63
2021/04/23 08:58:46;;;;;;;22.05;19.08;;;17.40;51.20;;;;;;5051167;28;20048;-63
2021/04/23 09:01:13;;;;;;;26.15;20.45;;;17.50;50.60;;;;;;5052417;28;20076;-63
2021/04/23 09:03:39;;;;;;;23.92;18.98;;;17.60;50.70;;;;;;5046321;28;20037;-63
2021/04/23 09:06:20;;;;;;;23.70;18.50;;;17.60;49.90;;;;;;5045290;28;20119;-63
2021/04/23 09:08:53;;;;;;;22.75;20.02;;;17.70;49.60;;;;;;5045203;28;20040;-63
2021/04/23 09:11:21;;;;;;;22.25;19.85;;;17.80;49.40;;;;;;5038845;28;20090;-64
2021/04/23 09:13:58;;;;;;;22.02;19.13;;;17.90;49.90;;;;;;5045429;28;20403;-64
2021/04/23 09:16:45;;;;;;;23.73;20.77;;;17.90;50.90;;;;;;5060931;28;20037;-63
2021/04/23 09:19:24;;;;;;;29.98;20.88;;;17.90;50.10;;;;;;5022991;28;20049;-62
2021/04/23 09:22:03;;;;;;;24.02;20.35;;;18.00;49.60;;;;;;5050193;28;20049;-61
2021/04/23 09:24:42;;;;;;;22.92;19.35;;;18.10;49.20;;;;;;5063341;28;20029;-63
2021/04/23 09:27:12;;;;;;;21.95;18.17;;;18.20;48.90;;;;;;5056946;28;20041;-63
2021/04/23 09:29:43;;;;;;;22.60;18.48;;;18.20;48.90;;;;;;5055145;28;20037;-62
2021/04/23 09:32:16;;;;;;;21.20;19.05;;;18.30;48.80;;;;;;5046895;28;20239;-62
2021/04/23 09:34:51;;;;;;;21.52;18.42;;;18.30;48.50;;;;;;5048877;28;20036;-62
2021/04/23 09:37:18;;;;;;;20.25;17.70;;;18.40;47.70;;;;;;5047475;28;20101;-62
2021/04/23 09:39:45;;;;;;;23.75;18.20;;;18.40;47.90;;;;;;5030575;28;20040;-63
2021/04/23 09:42:11;;;;;;;22.70;17.88;;;18.40;47.60;;;;;;5035219;28;20045;-63
2021/04/23 09:44:45;;;;;;;28.75;21.30;;;18.50;47.70;;;;;;5050629;28;20032;-63
2021/04/23 09:47:23;;;;;;;23.10;19.95;;;18.60;48.10;;;;;;5060843;28;20044;-63
2021/04/23 09:49:54;;;;;;;19.85;17.08;;;18.80;48.80;;;;;;5044867;28;20032;-63
2021/04/23 09:52:20;;;;;;;20.45;17.48;;;18.80;46.20;;;;;;5044705;28;20490;-62
2021/04/23 09:54:50;;;;;;;23.00;16.88;;;18.80;47.00;;;;;;5051786;28;20028;-62
2021/04/23 09:57:22;;;;;;;22.42;18.60;;;18.90;47.10;;;;;;5046503;28;20041;-63
2021/04/23 09:59:48;;;;;;;20.33;17.23;;;18.90;45.90;;;;;;5058518;28;20055;-62
2021/04/23 10:02:16;;;;;;;20.05;18.02;;;18.90;46.20;;;;;;5053546;28;20560;-63
2021/04/23 10:04:42;;;;;;;21.13;18.13;;;18.90;46.40;;;;;;5056825;28;20067;-63
2021/04/23 10:07:08;;;;;;;18.55;16.63;;;19.10;46.30;;;;;;5059929;28;20036;-63
2021/04/23 10:09:57;;;;;;;18.40;16.50;;;19.20;46.00;;;;;;5043218;28;20502;-62
2021/04/23 10:12:43;;;;;;;19.08;17.10;;;19.30;45.30;;;;;;5065424;28;20127;-63
2021/04/23 10:15:16;;;;;;;20.30;16.85;;;19.30;45.30;;;;;;5028751;28;20080;-63
2021/04/23 10:17:48;;;;;;;19.67;17.58;;;19.40;45.40;;;;;;5069329;28;20182;-63
2021/04/23 10:20:22;;;;;;;18.77;16.95;;;19.30;45.50;;;;;;5036564;28;20483;-62
2021/04/23 10:22:48;;;;;;;23.52;17.75;;;19.50;45.20;;;;;;5046358;28;20033;-63
2021/04/23 10:25:15;;;;;;;19.30;16.77;;;19.70;45.00;;;;;;5048358;28;20036;-63
2021/04/23 10:27:43;;;;;;;16.42;14.20;;;19.80;44.30;;;;;;5045400;28;20025;-63
2021/04/23 10:30:12;;;;;;;19.88;15.70;;;20.10;43.20;;;;;;5036969;28;20509;-64
2021/04/23 10:32:38;;;;;;;16.73;15.13;;;20.00;42.70;;;;;;5066717;28;20060;-63
2021/04/23 10:38:37;;;;;;;14.73;12.30;;;20.20;42.00;;;;;;5035291;28;20050;-64
2021/04/23 10:41:06;;;;;;;12.48;11.25;;;20.40;40.90;;;;;;5059313;28;20135;-64
2021/04/23 10:43:33;;;;;;;16.25;13.52;;;20.50;44.20;;;;;;5066278;28;20049;-64
2021/04/23 10:46:09;;;;;;;15.38;13.70;;;20.50;40.60;;;;;;5064549;28;20139;-63
2021/04/23 10:48:41;;;;;;;16.77;15.13;;;20.60;41.30;;;;;;5067094;28;20028;-63
2021/04/23 10:51:10;;;;;;;18.60;16.70;;;20.90;41.10;;;;;;5054651;28;20052;-62
2021/04/23 10:53:44;;;;;;;18.80;15.65;;;20.80;41.20;;;;;;5050264;28;20417;-63
2021/04/23 10:56:30;;;;;;;19.98;17.50;;;20.80;41.10;;;;;;5056126;28;20059;-63
2021/04/23 10:58:58;;;;;;;20.15;16.92;;;21.00;41.40;;;;;;5056417;28;20078;-65
2021/04/23 11:01:26;;;;;;;22.50;18.60;;;20.90;41.00;;;;;;5055334;28;20048;-63
2021/04/23 11:04:07;;;;;;;20.02;17.33;;;20.80;41.20;;;;;;5064862;28;20040;-63
2021/04/23 11:06:34;;;;;;;20.83;18.42;;;20.80;40.30;;;;;;5024376;28;20045;-63
2021/04/23 11:09:00;;;;;;;18.70;16.73;;;20.80;40.90;;;;;;5053249;28;20371;-63
2021/04/23 11:11:33;;;;;;;17.35;15.48;;;20.90;41.00;;;;;;5064726;28;20086;-66
2021/04/23 11:14:22;;;;;;;19.13;17.20;;;21.20;40.00;;;;;;5045903;28;20029;-63
2021/04/23 11:16:50;;;;;;;20.38;18.25;;;21.50;39.00;;;;;;5037732;28;20052;-62
2021/04/23 11:19:18;;;;;;;20.00;17.98;;;21.50;38.70;;;;;;5052326;28;20407;-63
2021/04/23 11:21:45;;;;;;;20.10;18.02;;;21.40;38.80;;;;;;5048742;28;20048;-63
2021/04/23 11:24:22;;;;;;;19.48;15.65;;;21.30;39.20;;;;;;5057336;28;20152;-63
2021/04/23 11:27:07;;;;;;;22.63;18.75;;;21.10;39.00;;;;;;5064367;28;20143;-63
2021/04/23 11:29:38;;;;;;;;;;;20.90;38.80;;;;;;5009536;28;20036;-62
2021/04/23 11:32:27;;;;;;;20.77;18.60;;;21.00;39.40;;;;;;5058258;28;19916;-63
2021/04/23 11:35:30;;;;;;;22.65;17.60;;;21.80;38.10;;;;;;5057497;28;20052;-62
2021/04/23 11:37:58;;;;;;;18.40;16.40;;;26.20;30.00;;;;;;5018995;28;20043;-64
2021/04/23 11:40:29;;;;;;;21.48;19.27;;;26.00;30.20;;;;;;5056189;28;20132;-62
2021/04/23 11:42:56;;;;;;;22.77;18.08;;;26.50;28.50;;;;;;5054165;28;20048;-62
2021/04/23 11:45:34;;;;;;;23.67;19.10;;;27.00;29.10;;;;;;5051456;28;20043;-63
2021/04/23 11:48:10;;;;;;;21.00;17.70;;;26.90;29.30;;;;;;5056982;28;20040;-63
2021/04/23 11:50:41;;;;;;;86.75;28.45;;;26.30;29.20;;;;;;5067591;28;20048;-62
2021/04/23 11:53:11;;;;;;;27.10;17.80;;;25.20;29.50;;;;;;5051154;28;20037;-62
2021/04/23 11:55:39;;;;;;;21.10;18.88;;;24.30;31.60;;;;;;5033715;28;20045;-63
2021/04/23 11:58:10;;;;;;;18.63;16.55;;;23.50;32.60;;;;;;5043730;28;20036;-63
2021/04/23 12:00:38;;;;;;;39.50;18.25;;;23.20;33.60;;;;;;5034688;28;20043;-62
2021/04/23 12:03:09;;;;;;;33.28;20.98;;;24.10;32.10;;;;;;5050892;28;20079;-63
2021/04/23 12:05:39;;;;;;;19.90;17.60;;;25.60;30.10;;;;;;5037357;28;20041;-63
2021/04/23 12:08:09;;;;;;;45.88;20.73;;;28.20;28.50;;;;;;5035993;28;20121;-63
2021/04/23 12:10:46;;;;;;;18.25;16.45;;;26.90;27.20;;;;;;5035142;28;20033;-63
2021/04/23 12:13:13;;;;;;;20.15;18.15;;;27.00;28.20;;;;;;5043210;28;20045;-63
2021/04/23 12:15:41;;;;;;;19.58;17.48;;;26.70;28.10;;;;;;5055153;28;20040;-63
2021/04/23 12:18:08;;;;;;;33.63;20.20;;;27.30;27.80;;;;;;5049269;28;20044;-63
2021/04/23 12:20:40;;;;;;;30.25;18.70;;;26.50;27.80;;;;;;5016342;28;20087;-63
2021/04/23 12:23:16;;;;;;;18.27;15.23;;;26.30;28.60;;;;;;5042228;28;20041;-63
2021/04/23 12:25:46;;;;;;;18.65;16.67;;;26.00;28.60;;;;;;5040184;28;20041;-63
2021/04/23 12:28:35;;;;;;;19.75;17.75;;;26.50;28.50;;;;;;5045319;28;20065;-62
2021/04/23 12:31:03;;;;;;;20.77;18.60;;;25.70;28.60;;;;;;4968518;28;20045;-63
2021/04/23 12:34:10;;;;;;;20.13;18.10;;;26.30;28.50;;;;;;5050970;28;20663;-63
2021/04/23 12:36:42;;;;;;;18.15;16.45;;;26.30;27.70;;;;;;4996151;28;20029;-62
2021/04/23 12:39:26;;;;;;;18.83;17.02;;;26.10;28.50;;;;;;5041996;28;20039;-61